Time;durP1;ratioP1;P1;durP2;ratioP2;P2;SDS_P1;SDS_P2;PMS_P1;PMS_P2;Temp;Humidity;BMP_temperature;BMP_pressure;BME280_temperature;BME280_humidity;BME280_pressure;Samples;Min_cycle;Max_cycle;Signal;HPM_P1;HPM_P2
2024/01/30 00:01:03;;;;;;;114.60;26.43;;;3.30;99.90;;;;;;6246200;23;20251;-60
2024/01/30 00:03:30;;;;;;;102.83;23.03;;;3.30;99.90;;;;;;6247540;23;20173;-60
2024/01/30 00:05:57;;;;;;;85.77;23.73;;;3.20;99.90;;;;;;6247871;23;20169;-60
2024/01/30 00:08:26;;;;;;;93.37;25.00;;;3.20;99.90;;;;;;6247751;23;20179;-60
2024/01/30 00:10:53;;;;;;;97.50;23.83;;;3.10;99.90;;;;;;6220730;23;20603;-60
2024/01/30 00:13:20;;;;;;;78.13;21.93;;;3.00;99.90;;;;;;6247281;23;20655;-60
2024/01/30 00:15:48;;;;;;;102.53;24.37;;;3.00;99.90;;;;;;6195957;23;20249;-60
2024/01/30 00:18:16;;;;;;;136.10;24.00;;;2.90;99.90;;;;;;6247422;23;20259;-60
2024/01/30 00:20:43;;;;;;;81.27;23.60;;;2.80;99.90;;;;;;6246801;23;20213;-60
2024/01/30 00:23:10;;;;;;;177.63;26.60;;;2.80;99.90;;;;;;6221020;23;20170;-60
2024/01/30 00:25:37;;;;;;;91.17;23.43;;;2.80;99.90;;;;;;6220787;23;20181;-60
2024/01/30 00:28:04;;;;;;;169.77;28.27;;;2.70;99.90;;;;;;6220907;23;20337;-60
2024/01/30 00:30:31;;;;;;;85.03;23.80;;;2.70;99.90;;;;;;6247246;23;20173;-60
2024/01/30 00:32:58;;;;;;;96.63;23.50;;;2.70;99.90;;;;;;6247116;23;20177;-60
2024/01/30 00:35:25;;;;;;;125.27;24.90;;;2.70;99.90;;;;;;6247423;23;20185;-60
2024/01/30 00:37:52;;;;;;;113.37;24.23;;;2.70;99.90;;;;;;6246281;23;20176;-60
2024/01/30 00:40:20;;;;;;;183.67;25.77;;;2.70;99.90;;;;;;6246944;23;20255;-60
2024/01/30 00:42:47;;;;;;;89.50;25.60;;;2.70;99.90;;;;;;6247081;23;20181;-60
2024/01/30 00:45:16;;;;;;;118.63;23.83;;;2.70;99.90;;;;;;6246883;23;20209;-60
2024/01/30 00:47:43;;;;;;;86.37;25.83;;;2.70;99.90;;;;;;6247307;23;20584;-60
2024/01/30 00:50:11;;;;;;;70.47;24.53;;;2.70;99.90;;;;;;6247052;23;20176;-60
2024/01/30 00:52:40;;;;;;;135.83;25.53;;;2.60;99.90;;;;;;6246443;23;20476;-60
2024/01/30 00:55:07;;;;;;;326.67;30.73;;;2.70;99.90;;;;;;6246960;23;20202;-60
2024/01/30 00:57:34;;;;;;;123.23;27.13;;;2.60;99.90;;;;;;6245925;23;20201;-60
2024/01/30 01:00:01;;;;;;;140.17;25.90;;;2.60;99.90;;;;;;6246753;23;20197;-60
2024/01/30 01:02:28;;;;;;;150.80;26.37;;;2.60;99.90;;;;;;6247003;23;20577;-60
2024/01/30 01:04:55;;;;;;;129.23;25.33;;;2.60;99.90;;;;;;6246916;23;20166;-60
2024/01/30 01:07:22;;;;;;;104.40;27.13;;;2.60;99.90;;;;;;6247115;23;20184;-60
2024/01/30 01:09:49;;;;;;;120.90;24.27;;;2.60;99.90;;;;;;6246924;23;20251;-60
2024/01/30 01:12:16;;;;;;;96.63;26.27;;;2.60;99.90;;;;;;6246479;23;20497;-60
2024/01/30 01:14:43;;;;;;;95.33;28.73;;;2.60;99.90;;;;;;6247138;23;20642;-60
2024/01/30 01:17:10;;;;;;;120.97;26.73;;;2.60;99.90;;;;;;6246291;23;20591;-60
2024/01/30 01:19:37;;;;;;;152.40;28.87;;;2.60;99.90;;;;;;6246636;23;20201;-60
2024/01/30 01:22:05;;;;;;;205.87;28.50;;;2.60;99.90;;;;;;6246700;23;20196;-60
2024/01/30 01:24:32;;;;;;;109.53;25.97;;;2.60;99.90;;;;;;6246809;23;20223;-61
2024/01/30 01:26:59;;;;;;;117.07;25.63;;;2.60;99.90;;;;;;6246475;23;20193;-61
2024/01/30 01:29:28;;;;;;;136.03;30.77;;;2.60;99.90;;;;;;6246982;23;20172;-60
2024/01/30 01:31:56;;;;;;;110.10;24.37;;;2.60;99.90;;;;;;6246513;23;20154;-60
2024/01/30 01:34:24;;;;;;;77.33;24.23;;;2.60;99.90;;;;;;6246540;23;20177;-60
2024/01/30 01:36:56;;;;;;;88.17;27.13;;;2.60;99.90;;;;;;6246812;23;20161;-61
2024/01/30 01:39:23;;;;;;;76.63;27.50;;;2.60;99.90;;;;;;6246185;23;20529;-60
2024/01/30 01:41:51;;;;;;;65.13;27.40;;;2.60;99.90;;;;;;6220504;23;20172;-60
2024/01/30 01:44:19;;;;;;;160.80;27.17;;;2.60;99.90;;;;;;6246445;23;20266;-61
2024/01/30 01:46:47;;;;;;;177.83;28.77;;;2.70;99.90;;;;;;6246791;23;20489;-60
2024/01/30 01:49:14;;;;;;;100.53;28.40;;;2.70;99.90;;;;;;6246145;23;20166;-61
2024/01/30 01:51:44;;;;;;;195.10;30.17;;;2.70;99.90;;;;;;6246523;23;20203;-60
2024/01/30 01:54:12;;;;;;;85.83;27.00;;;2.70;99.90;;;;;;6246332;23;20247;-60
2024/01/30 01:56:40;;;;;;;67.27;26.20;;;2.70;99.90;;;;;;6246418;23;20197;-60
2024/01/30 01:59:08;;;;;;;86.27;26.80;;;2.80;99.90;;;;;;6246431;23;20177;-60
2024/01/30 02:01:38;;;;;;;61.07;29.07;;;2.80;99.90;;;;;;6246593;23;20223;-60
2024/01/30 02:04:06;;;;;;;84.33;26.83;;;2.80;99.90;;;;;;6245934;23;20531;-60
2024/01/30 02:06:38;;;;;;;103.10;28.50;;;2.80;99.90;;;;;;6246634;23;20176;-60
2024/01/30 02:09:05;;;;;;;92.50;27.13;;;2.90;99.90;;;;;;6248978;23;20195;-60
2024/01/30 02:11:32;;;;;;;111.40;28.70;;;2.90;99.90;;;;;;6249955;23;20187;-60
2024/01/30 02:14:04;;;;;;;77.17;25.27;;;2.90;99.90;;;;;;6249468;23;20531;-59
2024/01/30 02:16:34;;;;;;;121.87;25.90;;;2.90;99.90;;;;;;6249964;23;20165;-60
2024/01/30 02:19:01;;;;;;;103.70;27.80;;;2.90;99.90;;;;;;6249825;23;20196;-60
2024/01/30 02:21:29;;;;;;;87.53;26.57;;;2.90;99.90;;;;;;6249941;23;20231;-60
2024/01/30 02:23:59;;;;;;;78.93;29.30;;;2.90;99.90;;;;;;6249810;23;20478;-60
2024/01/30 02:26:26;;;;;;;85.70;26.07;;;2.90;99.90;;;;;;6250119;23;20174;-60
2024/01/30 02:28:53;;;;;;;84.97;26.53;;;2.90;99.90;;;;;;6249803;23;20238;-60
2024/01/30 02:31:20;;;;;;;83.33;26.87;;;2.80;99.90;;;;;;6249406;23;20169;-60
2024/01/30 02:33:47;;;;;;;102.47;26.03;;;2.80;99.90;;;;;;6249716;23;20183;-60
2024/01/30 02:36:15;;;;;;;83.33;25.87;;;2.80;99.90;;;;;;6249219;23;20615;-60
2024/01/30 02:38:42;;;;;;;152.60;30.60;;;2.80;99.90;;;;;;6249904;23;20172;-60
2024/01/30 02:41:09;;;;;;;88.80;26.83;;;2.80;99.90;;;;;;6249276;23;20239;-60
2024/01/30 02:43:36;;;;;;;97.33;25.13;;;2.80;99.90;;;;;;6249665;23;20173;-60
2024/01/30 02:46:03;;;;;;;96.07;24.90;;;2.80;99.90;;;;;;6248457;23;20170;-60
2024/01/30 02:48:30;;;;;;;70.53;23.93;;;2.80;99.90;;;;;;6249639;23;20469;-61
2024/01/30 02:50:58;;;;;;;83.57;25.20;;;2.70;99.90;;;;;;6248220;23;20515;-60
2024/01/30 02:53:25;;;;;;;72.50;22.87;;;2.70;99.90;;;;;;6249457;23;20178;-60
2024/01/30 02:55:52;;;;;;;86.53;26.43;;;2.70;99.90;;;;;;6223268;23;20180;-60
2024/01/30 02:58:19;;;;;;;61.20;24.90;;;2.60;99.90;;;;;;6249357;23;20175;-60
2024/01/30 03:00:46;;;;;;;72.57;25.60;;;2.60;99.90;;;;;;6249307;23;20568;-60
2024/01/30 03:03:13;;;;;;;60.27;24.60;;;2.60;99.90;;;;;;6249721;23;20452;-60
2024/01/30 03:05:41;;;;;;;116.03;26.67;;;2.70;99.90;;;;;;6249059;23;20226;-60
2024/01/30 03:08:08;;;;;;;70.50;25.43;;;2.70;99.90;;;;;;6249475;23;20238;-60
2024/01/30 03:10:35;;;;;;;76.37;24.03;;;2.70;99.90;;;;;;6249793;23;20527;-61
2024/01/30 03:13:02;;;;;;;114.73;25.53;;;2.70;99.90;;;;;;6249540;23;20596;-60
2024/01/30 03:15:29;;;;;;;110.67;25.37;;;2.70;99.90;;;;;;6249140;23;20180;-60
2024/01/30 03:17:56;;;;;;;98.67;26.20;;;2.70;99.90;;;;;;6249283;23;20632;-60
2024/01/30 03:20:24;;;;;;;94.53;23.10;;;2.70;99.90;;;;;;6248061;23;20499;-60
2024/01/30 03:22:51;;;;;;;85.20;24.40;;;2.70;99.90;;;;;;6247757;23;20188;-60
2024/01/30 03:25:18;;;;;;;91.23;29.20;;;2.70;99.90;;;;;;6247605;23;20188;-60
2024/01/30 03:27:45;;;;;;;112.77;24.80;;;2.70;99.90;;;;;;6247554;23;20169;-60
2024/01/30 03:30:12;;;;;;;92.53;24.47;;;2.70;99.90;;;;;;6247502;23;20188;-60
2024/01/30 03:32:39;;;;;;;73.67;23.30;;;2.60;99.90;;;;;;6247670;23;20185;-60
2024/01/30 03:35:06;;;;;;;88.63;25.07;;;2.60;99.90;;;;;;6247821;23;20172;-60
2024/01/30 03:37:34;;;;;;;68.80;25.23;;;2.60;99.90;;;;;;6247793;23;20184;-60
2024/01/30 03:40:03;;;;;;;85.50;27.13;;;2.60;99.90;;;;;;6247351;23;20183;-60
2024/01/30 03:42:30;;;;;;;71.23;23.63;;;2.60;99.90;;;;;;6221371;23;20168;-60
2024/01/30 03:44:57;;;;;;;89.17;26.27;;;2.60;99.90;;;;;;6247424;23;20208;-60
2024/01/30 03:47:24;;;;;;;70.20;25.10;;;2.60;99.90;;;;;;6247316;23;20173;-60
2024/01/30 03:49:51;;;;;;;81.70;25.47;;;2.60;99.90;;;;;;6246652;23;20223;-60
2024/01/30 03:52:19;;;;;;;125.33;27.53;;;2.60;99.90;;;;;;6247893;23;20190;-60
2024/01/30 03:54:46;;;;;;;80.60;27.10;;;2.60;99.90;;;;;;6247014;23;20177;-60
2024/01/30 03:57:13;;;;;;;84.30;27.93;;;2.60;99.90;;;;;;6247403;23;20185;-61
2024/01/30 03:59:42;;;;;;;142.73;26.07;;;2.60;99.90;;;;;;6247483;23;20181;-61
2024/01/30 04:02:11;;;;;;;90.23;25.17;;;2.60;99.90;;;;;;6246996;23;20232;-60
2024/01/30 04:04:38;;;;;;;64.10;24.83;;;2.60;99.90;;;;;;6247820;23;20442;-60
2024/01/30 04:07:06;;;;;;;92.13;25.77;;;2.60;99.90;;;;;;6221486;23;20239;-60
2024/01/30 04:09:33;;;;;;;115.77;28.10;;;2.60;99.90;;;;;;6246911;23;20502;-60
2024/01/30 04:12:02;;;;;;;99.40;27.40;;;2.50;99.90;;;;;;6247544;23;20174;-60
2024/01/30 04:14:30;;;;;;;99.40;25.13;;;2.60;99.90;;;;;;6247264;23;20185;-60
2024/01/30 04:16:57;;;;;;;127.80;26.13;;;2.60;99.90;;;;;;6247734;23;20173;-60
2024/01/30 04:19:24;;;;;;;108.10;26.60;;;2.60;99.90;;;;;;6220947;23;20510;-60
2024/01/30 04:21:51;;;;;;;80.13;24.77;;;2.60;99.90;;;;;;6247192;23;20235;-60
2024/01/30 04:24:18;;;;;;;83.40;26.87;;;2.60;99.90;;;;;;6247143;23;20235;-60
2024/01/30 04:26:45;;;;;;;114.73;27.77;;;2.60;99.90;;;;;;6220694;23;20189;-60
2024/01/30 04:29:12;;;;;;;95.83;24.70;;;2.60;99.90;;;;;;6247227;23;20179;-60
2024/01/30 04:31:39;;;;;;;132.10;27.00;;;2.60;99.90;;;;;;6245776;23;20616;-60
2024/01/30 04:34:06;;;;;;;128.10;25.17;;;2.50;99.90;;;;;;6247433;23;20185;-60
2024/01/30 04:36:34;;;;;;;117.67;25.97;;;2.50;99.90;;;;;;6246564;23;20283;-60
2024/01/30 04:39:01;;;;;;;123.50;27.47;;;2.50;99.90;;;;;;6247146;23;20248;-60
2024/01/30 04:41:31;;;;;;;111.90;27.57;;;2.40;99.90;;;;;;6246797;23;20698;-60
2024/01/30 04:43:58;;;;;;;142.97;27.83;;;2.40;99.90;;;;;;6247040;23;20264;-60
2024/01/30 04:46:25;;;;;;;100.50;28.90;;;2.50;99.90;;;;;;6246870;23;20219;-60
2024/01/30 04:48:52;;;;;;;109.40;25.83;;;2.50;99.90;;;;;;6247088;23;20170;-60
2024/01/30 04:51:20;;;;;;;90.37;26.67;;;2.50;99.90;;;;;;6246785;23;20275;-60
2024/01/30 04:53:47;;;;;;;126.03;26.60;;;2.50;99.90;;;;;;6246685;23;20177;-60
2024/01/30 04:56:14;;;;;;;144.53;30.00;;;2.50;99.90;;;;;;6246676;23;20174;-61
2024/01/30 04:58:41;;;;;;;126.33;28.80;;;2.50;99.90;;;;;;6247050;23;20179;-60
2024/01/30 05:01:08;;;;;;;86.07;28.07;;;2.60;99.90;;;;;;6246687;23;20194;-60
2024/01/30 05:03:35;;;;;;;127.63;29.13;;;2.60;99.90;;;;;;6246871;23;20174;-60
2024/01/30 05:06:02;;;;;;;100.93;29.07;;;2.60;99.90;;;;;;6247025;23;20180;-60
2024/01/30 05:08:29;;;;;;;112.73;29.13;;;2.60;99.90;;;;;;6247027;23;20476;-60
2024/01/30 05:10:59;;;;;;;89.57;26.50;;;2.70;99.90;;;;;;6247141;23;20234;-61
2024/01/30 05:13:26;;;;;;;105.90;26.83;;;2.70;99.90;;;;;;6247062;23;20176;-61
2024/01/30 05:15:53;;;;;;;111.10;29.43;;;2.70;99.90;;;;;;6246733;23;20191;-61
2024/01/30 05:18:20;;;;;;;106.60;28.77;;;2.70;99.90;;;;;;6220264;23;20218;-60
2024/01/30 05:20:48;;;;;;;110.10;25.93;;;2.70;99.90;;;;;;6246813;23;20197;-61
2024/01/30 05:23:15;;;;;;;119.67;29.07;;;2.70;99.90;;;;;;6246725;23;20177;-60
2024/01/30 05:25:42;;;;;;;150.80;29.47;;;2.70;99.90;;;;;;6246535;23;20177;-60
2024/01/30 05:28:09;;;;;;;70.10;26.60;;;2.70;99.90;;;;;;6246252;23;20175;-60
2024/01/30 05:30:36;;;;;;;59.90;25.67;;;2.70;99.90;;;;;;6246568;23;20177;-60
2024/01/30 05:33:03;;;;;;;80.97;25.07;;;2.70;99.90;;;;;;6246484;23;20181;-61
2024/01/30 05:35:31;;;;;;;99.90;25.57;;;2.80;99.90;;;;;;6246969;23;20177;-61
2024/01/30 05:37:58;;;;;;;93.27;25.27;;;2.80;99.90;;;;;;6246344;23;20169;-60
2024/01/30 05:40:25;;;;;;;125.83;25.13;;;2.80;99.90;;;;;;6246864;23;20461;-60
2024/01/30 05:42:52;;;;;;;121.97;25.77;;;2.70;99.90;;;;;;6245871;23;20488;-60
2024/01/30 05:45:19;;;;;;;105.83;26.40;;;2.80;99.90;;;;;;6246352;23;20201;-60
2024/01/30 05:47:47;;;;;;;72.43;26.53;;;2.70;99.90;;;;;;6245543;23;20174;-60
2024/01/30 05:50:14;;;;;;;86.60;27.03;;;2.70;99.90;;;;;;6246701;23;20193;-60
2024/01/30 05:52:41;;;;;;;81.70;24.63;;;2.70;99.90;;;;;;6246630;23;20181;-61
2024/01/30 05:55:08;;;;;;;84.20;26.57;;;2.70;99.90;;;;;;6246334;23;20535;-60
2024/01/30 05:57:37;;;;;;;121.60;26.73;;;2.80;99.90;;;;;;6246172;23;20495;-60
2024/01/30 06:00:07;;;;;;;72.90;25.67;;;2.80;99.90;;;;;;6246419;23;20238;-60
2024/01/30 06:02:35;;;;;;;108.03;25.20;;;2.80;99.90;;;;;;6245796;23;20196;-60
2024/01/30 06:05:03;;;;;;;83.40;24.33;;;2.80;99.90;;;;;;6246297;23;20199;-60
2024/01/30 06:07:30;;;;;;;69.23;24.23;;;2.80;99.90;;;;;;6245648;23;20185;-60
2024/01/30 06:10:03;;;;;;;63.63;23.00;;;2.80;99.90;;;;;;6246460;23;20161;-60
2024/01/30 06:12:30;;;;;;;88.87;24.27;;;2.80;99.90;;;;;;6246410;23;20177;-60
2024/01/30 06:14:58;;;;;;;84.60;25.23;;;2.80;99.90;;;;;;6246231;23;20176;-60
2024/01/30 06:17:25;;;;;;;73.90;23.73;;;2.80;99.90;;;;;;6246561;23;20482;-60
2024/01/30 06:19:52;;;;;;;79.73;25.00;;;2.80;99.90;;;;;;6246346;23;20176;-60
2024/01/30 06:22:19;;;;;;;91.17;24.50;;;2.80;99.90;;;;;;6246158;23;20208;-60
2024/01/30 06:24:49;;;;;;;88.47;24.97;;;2.80;99.90;;;;;;6246199;23;20590;-60
2024/01/30 06:27:17;;;;;;;56.77;23.27;;;2.80;99.90;;;;;;6246328;23;20520;-60
2024/01/30 06:29:44;;;;;;;73.30;25.20;;;2.80;99.90;;;;;;6246049;23;20176;-60
2024/01/30 06:32:11;;;;;;;63.53;24.33;;;2.70;99.90;;;;;;6246063;23;20503;-60
2024/01/30 06:34:39;;;;;;;62.90;25.17;;;2.70;99.90;;;;;;6246362;23;20172;-60
2024/01/30 06:37:07;;;;;;;58.43;23.33;;;2.70;99.90;;;;;;6246352;23;20600;-60
2024/01/30 06:39:34;;;;;;;70.90;22.63;;;2.70;99.90;;;;;;6245882;23;20446;-60
2024/01/30 06:42:01;;;;;;;59.70;23.40;;;2.70;99.90;;;;;;6246229;23;20495;-60
2024/01/30 06:44:28;;;;;;;51.97;22.23;;;2.70;99.90;;;;;;6245793;23;20737;-60
2024/01/30 06:46:59;;;;;;;47.93;23.93;;;2.60;99.90;;;;;;6246568;23;20566;-60
2024/01/30 06:49:26;;;;;;;54.27;22.50;;;2.60;99.90;;;;;;6245766;23;20177;-60
2024/01/30 06:51:53;;;;;;;44.97;22.33;;;2.60;99.90;;;;;;6246124;23;20195;-61
2024/01/30 06:54:20;;;;;;;62.30;23.27;;;2.60;99.90;;;;;;6245853;23;20248;-60
2024/01/30 06:56:47;;;;;;;69.13;23.47;;;2.60;99.90;;;;;;6248122;23;20201;-60
2024/01/30 06:59:14;;;;;;;67.47;23.00;;;2.60;99.90;;;;;;6248038;23;20212;-60
2024/01/30 07:01:41;;;;;;;83.03;24.20;;;2.60;99.90;;;;;;6248215;23;20254;-60
2024/01/30 07:04:08;;;;;;;56.03;21.43;;;2.60;99.90;;;;;;6247628;23;20169;-60
2024/01/30 07:06:35;;;;;;;77.40;23.53;;;2.60;99.90;;;;;;6248072;23;20632;-60
2024/01/30 07:09:03;;;;;;;44.50;21.13;;;2.60;99.90;;;;;;6248098;23;20189;-60
2024/01/30 07:11:30;;;;;;;80.50;24.77;;;2.60;99.90;;;;;;6247850;23;20243;-60
2024/01/30 07:13:57;;;;;;;54.10;23.53;;;2.60;99.90;;;;;;6247679;23;20174;-60
2024/01/30 07:16:24;;;;;;;46.50;21.87;;;2.70;99.90;;;;;;6248438;23;20478;-61
2024/01/30 07:18:52;;;;;;;41.33;20.93;;;2.70;99.90;;;;;;6247843;23;20176;-60
2024/01/30 07:21:21;;;;;;;55.43;23.80;;;2.70;99.90;;;;;;6247398;23;20214;-60
2024/01/30 07:23:49;;;;;;;63.07;23.53;;;2.70;99.90;;;;;;6247924;23;20193;-60
2024/01/30 07:26:16;;;;;;;78.63;22.83;;;2.70;99.90;;;;;;6247656;23;20193;-60
2024/01/30 07:28:43;;;;;;;44.93;21.77;;;2.80;99.90;;;;;;6247963;23;20532;-61
2024/01/30 07:31:11;;;;;;;74.90;22.07;;;2.80;99.90;;;;;;6221235;23;20541;-60
2024/01/30 07:33:38;;;;;;;58.43;24.00;;;2.80;99.90;;;;;;6247966;23;20177;-60
2024/01/30 07:36:05;;;;;;;57.87;19.60;;;2.80;99.90;;;;;;6247516;23;20169;-60
2024/01/30 07:38:32;;;;;;;46.00;21.03;;;2.80;99.90;;;;;;6247719;23;20533;-60
2024/01/30 07:40:59;;;;;;;47.80;20.00;;;2.80;99.90;;;;;;6246937;23;20166;-60
2024/01/30 07:43:26;;;;;;;60.03;21.10;;;2.80;99.90;;;;;;6250185;22;20184;-61
2024/01/30 07:45:53;;;;;;;70.90;22.67;;;2.70;99.90;;;;;;6277995;22;20624;-60
2024/01/30 07:48:21;;;;;;;57.43;21.23;;;2.70;99.90;;;;;;6278200;22;20176;-60
2024/01/30 07:50:48;;;;;;;53.17;21.27;;;2.70;99.90;;;;;;6278040;22;20454;-60
2024/01/30 07:53:15;;;;;;;118.37;22.90;;;2.80;99.90;;;;;;6278390;22;20539;-60
2024/01/30 07:55:46;;;;;;;59.77;22.83;;;2.80;99.90;;;;;;6278102;22;20179;-60
2024/01/30 07:58:13;;;;;;;47.03;21.50;;;2.80;99.90;;;;;;6278267;22;20176;-60
2024/01/30 08:00:41;;;;;;;55.73;21.30;;;2.80;99.90;;;;;;6277783;22;20188;-60
2024/01/30 08:03:08;;;;;;;65.47;21.47;;;2.80;99.90;;;;;;6277949;22;20191;-60
2024/01/30 08:05:35;;;;;;;55.37;19.97;;;2.80;99.90;;;;;;6277376;22;20622;-61
2024/01/30 08:08:02;;;;;;;54.03;22.13;;;2.80;99.90;;;;;;6277986;22;20177;-60
2024/01/30 08:10:29;;;;;;;42.93;21.70;;;2.80;99.90;;;;;;6251236;22;20180;-60
2024/01/30 08:12:57;;;;;;;46.50;22.17;;;2.90;99.90;;;;;;6277972;22;20272;-60
2024/01/30 08:15:24;;;;;;;62.40;21.93;;;2.90;99.90;;;;;;6277779;22;20226;-60
2024/01/30 08:17:55;;;;;;;56.33;22.60;;;2.90;99.90;;;;;;6278025;22;20199;-60
2024/01/30 08:20:22;;;;;;;42.17;21.77;;;3.00;99.90;;;;;;6277884;22;20580;-61
2024/01/30 08:22:49;;;;;;;74.07;22.50;;;3.00;99.90;;;;;;6278000;22;20270;-60
2024/01/30 08:25:16;;;;;;;45.10;21.97;;;3.10;99.90;;;;;;6277874;22;20485;-60
2024/01/30 08:27:44;;;;;;;44.80;23.83;;;3.10;99.90;;;;;;6277829;22;20183;-60
2024/01/30 08:30:12;;;;;;;53.20;23.03;;;3.10;99.90;;;;;;6277662;22;20172;-60
2024/01/30 08:32:39;;;;;;;37.17;21.37;;;3.20;99.90;;;;;;6277669;22;20585;-60
2024/01/30 08:35:06;;;;;;;35.43;22.20;;;3.20;99.90;;;;;;6277852;22;20180;-60
2024/01/30 08:37:34;;;;;;;44.07;22.87;;;3.30;99.90;;;;;;6251167;22;20521;-61
2024/01/30 08:40:03;;;;;;;37.93;21.27;;;3.30;99.90;;;;;;6277857;22;20176;-60
2024/01/30 08:42:33;;;;;;;34.07;21.00;;;3.30;99.90;;;;;;6277507;22;20620;-60
2024/01/30 08:45:00;;;;;;;43.53;22.90;;;3.30;99.90;;;;;;6277735;22;20269;-60
2024/01/30 08:47:27;;;;;;;34.80;22.77;;;3.30;99.90;;;;;;6277443;22;20267;-60
2024/01/30 08:49:54;;;;;;;37.23;22.97;;;3.30;99.90;;;;;;6278151;22;20172;-60
2024/01/30 08:52:22;;;;;;;47.73;25.10;;;3.40;99.90;;;;;;6277377;22;20596;-60
2024/01/30 08:54:49;;;;;;;45.77;22.60;;;3.40;99.90;;;;;;6277538;22;20177;-60
2024/01/30 08:57:16;;;;;;;36.03;22.17;;;3.40;99.90;;;;;;6277431;22;20188;-60
2024/01/30 08:59:45;;;;;;;39.43;22.43;;;3.50;99.90;;;;;;6277743;22;20235;-61
2024/01/30 09:02:15;;;;;;;35.17;23.63;;;3.60;99.90;;;;;;6277214;22;20231;-61
2024/01/30 09:04:43;;;;;;;34.00;21.17;;;3.60;99.90;;;;;;6277301;22;20157;-60
2024/01/30 09:07:11;;;;;;;31.20;21.00;;;3.60;99.90;;;;;;6277697;22;20518;-60
2024/01/30 09:09:40;;;;;;;33.00;21.20;;;3.70;99.90;;;;;;6277726;22;20596;-61
2024/01/30 09:12:09;;;;;;;36.87;22.80;;;3.70;99.90;;;;;;6277382;22;20235;-60
2024/01/30 09:14:37;;;;;;;39.10;22.27;;;3.80;99.90;;;;;;6277296;22;20285;-61
2024/01/30 09:17:04;;;;;;;41.37;22.80;;;3.80;99.90;;;;;;6276899;22;20589;-62
2024/01/30 09:19:32;;;;;;;36.57;21.33;;;3.90;99.90;;;;;;6277479;22;20533;-60
2024/01/30 09:21:59;;;;;;;41.17;22.33;;;3.90;99.90;;;;;;6277437;22;20189;-60
2024/01/30 09:24:27;;;;;;;35.93;22.67;;;3.90;99.90;;;;;;6277372;22;20175;-60
2024/01/30 09:26:54;;;;;;;40.33;23.93;;;4.00;99.90;;;;;;6276675;22;20168;-60
2024/01/30 09:29:21;;;;;;;37.17;23.07;;;4.00;99.90;;;;;;6277321;22;20173;-61
2024/01/30 09:31:48;;;;;;;40.47;24.57;;;4.10;99.90;;;;;;6276811;22;20169;-61
2024/01/30 09:34:16;;;;;;;37.83;23.60;;;4.10;99.90;;;;;;6276904;22;20173;-61
2024/01/30 09:36:43;;;;;;;38.87;23.57;;;4.20;99.90;;;;;;6277359;22;20171;-60
2024/01/30 09:39:10;;;;;;;38.53;23.83;;;4.30;99.90;;;;;;6277086;22;20177;-61
2024/01/30 09:42:04;;;;;;;39.27;22.87;;;4.40;99.90;;;;;;6277373;22;20250;-60
2024/01/30 09:44:36;;;;;;;41.67;24.33;;;4.50;99.90;;;;;;6211453;22;20201;-60
2024/01/30 09:47:05;;;;;;;39.07;24.30;;;4.60;99.90;;;;;;6277347;22;20192;-60
2024/01/30 09:49:33;;;;;;;39.63;26.10;;;4.70;99.90;;;;;;6277301;22;20540;-60
2024/01/30 09:52:02;;;;;;;35.33;22.83;;;4.70;99.90;;;;;;6276780;22;20526;-62
2024/01/30 09:54:33;;;;;;;38.50;24.13;;;4.80;99.90;;;;;;6277050;22;20235;-60
2024/01/30 09:57:03;;;;;;;35.27;21.87;;;4.80;99.90;;;;;;6276993;22;20176;-60
2024/01/30 09:59:32;;;;;;;42.00;24.40;;;4.80;99.90;;;;;;6276958;22;20204;-60
2024/01/30 10:01:59;;;;;;;41.53;25.10;;;4.80;99.90;;;;;;6275683;22;20189;-60
2024/01/30 10:04:26;;;;;;;36.87;23.90;;;4.90;99.90;;;;;;6276918;22;20548;-60
2024/01/30 10:06:53;;;;;;;41.27;26.70;;;5.00;99.90;;;;;;6277014;22;20161;-60
2024/01/30 10:09:21;;;;;;;39.67;24.37;;;5.30;99.90;;;;;;6277542;22;20184;-60
2024/01/30 10:11:51;;;;;;;40.10;25.43;;;5.40;99.90;;;;;;6276906;22;20169;-60
2024/01/30 10:14:18;;;;;;;43.33;25.33;;;5.50;99.80;;;;;;6277268;22;20172;-60
2024/01/30 10:16:46;;;;;;;37.47;24.30;;;5.40;99.50;;;;;;6250352;22;20173;-60
2024/01/30 10:19:13;;;;;;;44.17;26.40;;;5.40;99.30;;;;;;6276956;22;20204;-60
2024/01/30 10:21:40;;;;;;;46.13;25.40;;;5.40;99.40;;;;;;6276325;22;20189;-60
2024/01/30 10:24:08;;;;;;;48.50;28.97;;;5.50;99.40;;;;;;6276967;22;20243;-60
2024/01/30 10:26:37;;;;;;;47.07;28.43;;;5.50;98.70;;;;;;6276537;22;20166;-60
2024/01/30 10:29:05;;;;;;;55.87;32.87;;;5.40;98.40;;;;;;6277557;22;20169;-60
2024/01/30 10:31:32;;;;;;;49.87;29.30;;;5.40;98.80;;;;;;6278536;22;20248;-61
2024/01/30 10:33:59;;;;;;;45.77;27.17;;;5.40;99.00;;;;;;6279139;22;20193;-60
2024/01/30 10:36:46;;;;;;;51.10;31.30;;;5.50;99.20;;;;;;6278389;22;20161;-60
2024/01/30 10:39:17;;;;;;;47.27;28.93;;;5.50;99.10;;;;;;6278334;22;20170;-60
2024/01/30 10:41:48;;;;;;;42.77;27.23;;;5.50;98.90;;;;;;6278741;22;20268;-61
2024/01/30 10:44:19;;;;;;;47.80;30.33;;;5.40;98.70;;;;;;6278045;22;20239;-60
2024/01/30 10:46:56;;;;;;;46.40;28.53;;;5.40;98.60;;;;;;6279501;22;20191;-60
2024/01/30 10:49:24;;;;;;;43.77;27.87;;;5.30;98.60;;;;;;6278481;22;20220;-60
2024/01/30 10:51:53;;;;;;;51.57;27.93;;;5.30;98.60;;;;;;6278677;22;20173;-60
2024/01/30 10:54:22;;;;;;;48.10;28.70;;;5.20;98.50;;;;;;6278479;22;20173;-60
2024/01/30 10:56:49;;;;;;;46.80;28.67;;;5.10;98.50;;;;;;6278608;22;20175;-61
2024/01/30 10:59:18;;;;;;;55.30;27.57;;;5.00;98.60;;;;;;6278787;22;20176;-60
2024/01/30 11:01:45;;;;;;;47.90;28.40;;;5.00;98.80;;;;;;6278618;22;20179;-60
2024/01/30 11:04:13;;;;;;;48.97;30.07;;;5.00;99.10;;;;;;6277802;22;20248;-60
2024/01/30 11:06:43;;;;;;;49.43;29.20;;;5.10;99.30;;;;;;6278838;22;20189;-59
2024/01/30 11:09:12;;;;;;;48.67;28.50;;;5.10;99.50;;;;;;6278224;22;20181;-60
2024/01/30 11:11:59;;;;;;;54.63;28.63;;;5.10;99.20;;;;;;6278559;22;20479;-60
2024/01/30 11:14:29;;;;;;;47.77;27.23;;;5.00;99.10;;;;;;6279101;22;20444;-61
2024/01/30 11:17:00;;;;;;;53.80;28.57;;;5.00;99.10;;;;;;6278479;22;20173;-61
2024/01/30 11:19:30;;;;;;;44.03;27.30;;;5.00;99.30;;;;;;6278622;22;20181;-61
2024/01/30 11:21:57;;;;;;;56.87;27.50;;;5.00;99.40;;;;;;6278529;22;20509;-61
2024/01/30 11:24:26;;;;;;;51.70;28.03;;;5.00;99.40;;;;;;6278842;22;20179;-62
2024/01/30 11:27:00;;;;;;;48.83;28.50;;;5.00;99.50;;;;;;6278233;22;20231;-60
2024/01/30 11:29:28;;;;;;;47.57;28.13;;;5.00;99.70;;;;;;6278543;22;20616;-60
2024/01/30 11:31:57;;;;;;;62.07;28.30;;;5.10;99.90;;;;;;6252190;22;20169;-59
2024/01/30 11:34:24;;;;;;;46.43;28.00;;;5.20;99.90;;;;;;6278293;22;20169;-60
2024/01/30 11:36:59;;;;;;;40.93;25.40;;;5.20;99.90;;;;;;6278544;22;20248;-61
2024/01/30 11:39:27;;;;;;;50.10;29.17;;;5.20;99.90;;;;;;6277926;22;20498;-60
2024/01/30 11:41:55;;;;;;;50.20;27.10;;;5.30;99.90;;;;;;6277924;22;20193;-61
2024/01/30 11:44:23;;;;;;;59.63;27.97;;;5.30;99.90;;;;;;6251273;22;20286;-60
2024/01/30 11:46:51;;;;;;;59.47;26.90;;;5.30;99.70;;;;;;6251628;22;20176;-59
2024/01/30 11:49:19;;;;;;;53.57;29.03;;;5.20;99.60;;;;;;6278272;22;20204;-60
2024/01/30 11:51:48;;;;;;;66.60;29.13;;;5.20;99.70;;;;;;6278287;22;20165;-60
2024/01/30 11:54:16;;;;;;;44.80;28.90;;;5.20;99.90;;;;;;6278212;22;20177;-59
2024/01/30 11:56:43;;;;;;;48.73;30.90;;;5.20;99.90;;;;;;6277980;22;20615;-59
2024/01/30 11:59:10;;;;;;;56.17;34.07;;;5.30;99.90;;;;;;6278052;22;20165;-62
2024/01/30 12:01:37;;;;;;;56.03;33.27;;;5.40;99.90;;;;;;6277799;22;20173;-61
2024/01/30 12:04:08;;;;;;;54.53;33.50;;;5.50;99.90;;;;;;6277613;22;20182;-61
2024/01/30 12:06:38;;;;;;;52.87;33.53;;;5.60;99.90;;;;;;6278282;22;20604;-61
2024/01/30 12:09:08;;;;;;;48.90;32.40;;;5.70;99.90;;;;;;6277996;22;20173;-61
2024/01/30 12:11:49;;;;;;;53.60;32.23;;;5.90;99.90;;;;;;6278238;22;20196;-60
2024/01/30 12:14:17;;;;;;;56.67;31.33;;;5.90;99.90;;;;;;6278234;22;20177;-60
2024/01/30 12:16:49;;;;;;;51.93;31.73;;;6.00;99.90;;;;;;6277769;22;20178;-61
2024/01/30 12:19:24;;;;;;;56.33;32.83;;;6.00;99.90;;;;;;6278212;22;20169;-61
2024/01/30 12:21:58;;;;;;;56.50;32.80;;;5.90;99.80;;;;;;6277652;22;20176;-60
2024/01/30 12:24:32;;;;;;;53.37;32.27;;;5.90;99.80;;;;;;6278140;22;20184;-61
2024/01/30 12:27:00;;;;;;;56.03;32.83;;;5.80;99.70;;;;;;6277904;22;20160;-60
2024/01/30 12:29:27;;;;;;;51.87;32.43;;;5.80;99.70;;;;;;6278173;22;20194;-61
2024/01/30 12:32:00;;;;;;;48.60;31.40;;;5.80;99.90;;;;;;6278114;22;20245;-61
2024/01/30 12:34:27;;;;;;;53.83;33.97;;;5.90;99.90;;;;;;6277451;22;20177;-61
2024/01/30 12:36:55;;;;;;;50.03;32.70;;;6.00;99.90;;;;;;6278157;22;20184;-60
2024/01/30 12:39:23;;;;;;;49.57;33.03;;;6.10;99.90;;;;;;6277795;22;20173;-62